createdAt,value
2019-03-12T00:01:06.260Z,9.30
2019-03-12T00:03:36.023Z,17.77
2019-03-12T00:06:05.953Z,13.73
2019-03-12T00:08:35.723Z,13.10
2019-03-12T00:11:05.517Z,17.00
2019-03-12T00:13:35.292Z,18.03
2019-03-12T00:16:05.089Z,13.43
2019-03-12T00:18:34.931Z,14.37
2019-03-12T00:21:04.725Z,15.77
2019-03-12T00:23:34.491Z,12.53
2019-03-12T00:26:04.346Z,10.60
2019-03-12T00:28:34.130Z,15.27
2019-03-12T00:31:03.893Z,10.63
2019-03-12T00:33:33.724Z,13.87
2019-03-12T00:36:03.571Z,10.17
2019-03-12T00:38:33.356Z,11.57
2019-03-12T00:41:03.137Z,11.07
2019-03-12T00:43:32.927Z,16.57
2019-03-12T00:46:02.704Z,11.90
2019-03-12T00:48:32.486Z,10.50
2019-03-12T00:51:02.272Z,8.37
2019-03-12T00:53:32.047Z,9.27
2019-03-12T00:56:01.823Z,12.77
2019-03-12T00:58:31.627Z,11.80
2019-03-12T01:01:01.391Z,9.63
2019-03-12T01:03:31.176Z,9.97
2019-03-12T01:06:00.947Z,11.87
2019-03-12T01:08:31.771Z,12.23
2019-03-12T01:11:01.552Z,13.10
2019-03-12T01:13:31.395Z,10.27
2019-03-12T01:16:01.199Z,15.87
2019-03-12T01:18:30.971Z,9.23
2019-03-12T01:21:00.755Z,12.53
2019-03-12T01:23:30.529Z,10.13
2019-03-12T01:26:00.309Z,13.33
2019-03-12T01:28:30.085Z,9.60
2019-03-12T01:30:59.868Z,11.50
2019-03-12T01:33:29.640Z,11.23
2019-03-12T01:35:59.443Z,12.40
2019-03-12T01:38:29.212Z,9.60
2019-03-12T01:40:58.988Z,9.30
2019-03-12T01:43:28.755Z,15.30
2019-03-12T01:45:58.563Z,14.33
2019-03-12T01:48:28.347Z,9.00
2019-03-12T01:50:58.131Z,13.00
2019-03-12T01:53:27.915Z,11.03
2019-03-12T01:55:57.766Z,14.60
2019-03-12T01:58:27.557Z,12.00
2019-03-12T02:00:57.400Z,10.77
2019-03-12T02:03:27.196Z,13.40
2019-03-12T02:05:56.959Z,15.90
2019-03-12T02:08:26.755Z,14.33
2019-03-12T02:10:56.535Z,13.63
2019-03-12T02:13:26.319Z,10.97
2019-03-12T02:15:56.100Z,11.93
2019-03-12T02:18:27.003Z,11.97
2019-03-12T02:20:56.777Z,13.73
2019-03-12T02:23:28.813Z,10.80
2019-03-12T02:25:58.031Z,12.10
2019-03-12T02:28:27.830Z,10.90
2019-03-12T02:30:57.625Z,10.80
2019-03-12T02:33:27.393Z,8.90
2019-03-12T02:35:57.175Z,11.77
2019-03-12T02:38:26.954Z,12.40
2019-03-12T02:40:56.783Z,13.03
2019-03-12T02:43:26.560Z,12.50
2019-03-12T02:45:56.348Z,10.93
2019-03-12T02:48:26.116Z,14.10
2019-03-12T02:50:55.907Z,7.60
2019-03-12T02:53:25.675Z,7.33
2019-03-12T02:55:55.465Z,9.70
2019-03-12T02:58:25.231Z,12.30
2019-03-12T03:00:55.019Z,12.93
2019-03-12T03:03:24.800Z,10.17
2019-03-12T03:05:56.216Z,8.17
2019-03-12T03:08:30.625Z,8.83
2019-03-12T03:11:00.376Z,11.37
2019-03-12T03:13:30.170Z,12.77
2019-03-12T03:15:59.999Z,6.03
2019-03-12T03:18:29.855Z,13.07
2019-03-12T03:20:59.891Z,7.20
2019-03-12T03:23:29.666Z,7.27
2019-03-12T03:25:59.431Z,12.00
2019-03-12T03:28:29.265Z,9.10
2019-03-12T03:30:59.012Z,6.43
2019-03-12T03:33:29.095Z,7.37
2019-03-12T03:35:59.063Z,15.30
2019-03-12T03:38:29.072Z,10.17
2019-03-12T03:40:59.493Z,8.27
2019-03-12T03:43:29.299Z,8.93
2019-03-12T03:45:59.093Z,7.37
2019-03-12T03:48:28.863Z,7.17
2019-03-12T03:50:58.632Z,11.63
2019-03-12T03:53:28.421Z,10.80
2019-03-12T03:55:58.200Z,8.17
2019-03-12T03:58:27.995Z,8.20
2019-03-12T04:00:57.768Z,6.27
2019-03-12T04:03:27.536Z,8.73
2019-03-12T04:05:57.393Z,8.10
2019-03-12T04:08:27.158Z,9.37
2019-03-12T04:10:56.938Z,10.50
2019-03-12T04:13:26.726Z,8.90
2019-03-12T04:15:56.492Z,7.03
2019-03-12T04:18:26.265Z,6.63
2019-03-12T04:20:56.044Z,8.20
2019-03-12T04:23:25.808Z,7.80
2019-03-12T04:25:55.587Z,7.67
2019-03-12T04:28:25.350Z,14.17
2019-03-12T04:30:55.200Z,8.60
2019-03-12T04:34:00.063Z,9.83
2019-03-12T04:36:29.839Z,8.40
2019-03-12T04:38:59.683Z,11.23
2019-03-12T04:41:29.532Z,10.90
2019-03-12T04:43:59.308Z,16.50
2019-03-12T04:46:29.090Z,11.63
2019-03-12T04:48:58.869Z,7.27
2019-03-12T04:51:28.654Z,8.23
2019-03-12T04:53:58.425Z,7.17
2019-03-12T04:56:28.208Z,11.30
2019-03-12T04:58:57.988Z,10.00
2019-03-12T05:01:27.784Z,7.60
2019-03-12T05:03:57.558Z,10.80
2019-03-12T05:06:27.326Z,10.63
2019-03-12T05:08:57.116Z,10.33
2019-03-12T05:11:26.978Z,9.60
2019-03-12T05:14:25.490Z,8.97
2019-03-12T05:16:58.250Z,20.47
2019-03-12T05:19:29.970Z,11.70
2019-03-12T05:21:59.750Z,9.40
2019-03-12T05:24:29.552Z,13.00
2019-03-12T05:26:59.303Z,9.60
2019-03-12T05:29:29.083Z,13.87
2019-03-12T05:31:58.860Z,10.87
2019-03-12T05:34:28.635Z,8.50
2019-03-12T05:36:58.408Z,9.57
2019-03-12T05:39:28.189Z,15.40
2019-03-12T05:41:57.951Z,6.87
2019-03-12T05:44:27.732Z,10.90
2019-03-12T05:46:57.506Z,10.57
2019-03-12T05:49:27.295Z,12.27
2019-03-12T05:51:57.072Z,13.23
2019-03-12T05:54:26.858Z,13.97
2019-03-12T05:56:56.637Z,14.30
2019-03-12T05:59:26.421Z,10.67
2019-03-12T06:01:56.231Z,9.70
2019-03-12T06:04:26.002Z,12.87
2019-03-12T06:06:55.884Z,19.33
2019-03-12T06:09:30.292Z,14.67
2019-03-12T06:11:57.135Z,9.37
2019-03-12T06:14:26.917Z,16.03
2019-03-12T06:16:56.766Z,17.23
2019-03-12T06:19:26.540Z,7.83
2019-03-12T06:21:56.331Z,11.13
2019-03-12T06:24:26.100Z,10.27
2019-03-12T06:26:55.884Z,12.60
2019-03-12T06:29:25.660Z,8.50
2019-03-12T06:31:59.890Z,9.37
2019-03-12T06:34:31.311Z,13.97
2019-03-12T06:37:11.803Z,12.17
2019-03-12T06:39:43.275Z,9.30
2019-03-12T06:42:14.724Z,12.43
2019-03-12T06:44:46.144Z,7.80
2019-03-12T06:47:17.584Z,16.17
2019-03-12T06:50:00.767Z,11.10
2019-03-12T06:52:44.222Z,10.60
2019-03-12T06:55:15.644Z,11.30
2019-03-12T06:58:25.609Z,8.30
2019-03-12T07:00:57.028Z,12.43
2019-03-12T07:03:43.819Z,9.33
2019-03-12T07:06:23.987Z,9.30
2019-03-12T07:09:00.867Z,12.63
2019-03-12T07:11:35.245Z,11.70
2019-03-12T07:14:06.744Z,9.47
2019-03-12T07:16:40.851Z,12.23
2019-03-12T07:19:12.851Z,8.40
2019-03-12T07:21:53.528Z,14.60
2019-03-12T07:24:37.153Z,11.67
2019-03-12T07:27:14.324Z,8.57
2019-03-12T07:29:54.784Z,12.27
2019-03-12T07:32:32.475Z,15.80
2019-03-12T07:35:22.921Z,10.63
2019-03-12T07:38:12.424Z,12.07
2019-03-12T07:40:55.817Z,15.20
2019-03-12T07:43:43.527Z,13.17
2019-03-12T07:46:24.020Z,16.80
2019-03-12T07:48:58.143Z,15.40
2019-03-12T07:51:30.655Z,13.93
2019-03-12T07:54:11.054Z,11.43
2019-03-12T07:56:58.540Z,12.20
2019-03-12T07:59:39.178Z,12.13
2019-03-12T08:02:10.596Z,12.13
2019-03-12T08:04:50.947Z,7.97
2019-03-12T08:07:40.766Z,9.20
2019-03-12T08:10:30.095Z,7.97
2019-03-12T08:13:04.160Z,14.33
2019-03-12T08:15:50.733Z,12.50
2019-03-12T08:18:35.554Z,12.77
2019-03-12T08:21:26.262Z,13.17
2019-03-12T08:24:00.552Z,9.93
2019-03-12T08:26:34.457Z,11.37
2019-03-12T08:29:20.890Z,9.13
2019-03-12T08:32:08.625Z,13.90
2019-03-12T08:34:52.092Z,12.27
2019-03-12T08:37:23.527Z,12.10
2019-03-12T08:40:11.433Z,11.40
2019-03-12T08:42:54.595Z,10.70
2019-03-12T08:45:24.914Z,14.20
2019-03-12T08:48:02.334Z,10.43
2019-03-12T08:50:40.008Z,9.37
2019-03-12T08:53:11.463Z,10.40
2019-03-12T08:55:45.830Z,9.97
2019-03-12T08:58:17.256Z,15.33
2019-03-12T09:00:49.234Z,13.90
2019-03-12T09:03:23.856Z,7.10
2019-03-12T09:06:01.212Z,13.93
2019-03-12T09:08:45.012Z,10.20
2019-03-12T09:11:22.450Z,10.90
2019-03-12T09:13:56.799Z,11.57
2019-03-12T09:16:28.312Z,10.30
2019-03-12T09:19:01.145Z,12.80
2019-03-12T09:21:45.254Z,8.90
2019-03-12T09:24:22.404Z,11.47
2019-03-12T09:26:56.554Z,7.10
2019-03-12T09:29:36.978Z,7.73
2019-03-12T09:32:08.428Z,12.47
2019-03-12T09:34:39.848Z,8.50
2019-03-12T09:37:11.354Z,7.83
2019-03-12T09:39:45.452Z,6.50
2019-03-12T09:42:28.988Z,9.53
2019-03-12T09:45:16.886Z,11.33
2019-03-12T09:47:48.368Z,9.50
2019-03-12T09:50:38.114Z,8.33
2019-03-12T09:53:15.168Z,9.73
2019-03-12T09:55:49.312Z,7.90
2019-03-12T09:58:32.550Z,13.00
2019-03-12T10:01:06.912Z,9.47
2019-03-12T10:03:40.749Z,15.17
2019-03-12T10:06:21.068Z,10.70
2019-03-12T10:08:55.152Z,9.90
2019-03-12T10:11:26.562Z,9.37
2019-03-12T10:14:13.314Z,6.63
2019-03-12T10:16:48.092Z,9.63
2019-03-12T10:19:19.694Z,9.60
2019-03-12T10:21:54.216Z,9.20
2019-03-12T10:24:31.421Z,7.63
2019-03-12T10:27:02.822Z,5.50
2019-03-12T10:29:45.940Z,10.13
2019-03-12T10:32:26.032Z,7.53
2019-03-12T10:35:03.777Z,6.97
2019-03-12T10:37:36.703Z,11.70
2019-03-12T10:40:11.063Z,8.33
2019-03-12T10:42:51.418Z,9.70
2019-03-12T10:45:28.797Z,11.53
2019-03-12T10:48:00.292Z,8.60
2019-03-12T10:50:30.172Z,6.30
2019-03-12T10:52:59.928Z,7.97
2019-03-12T10:55:29.736Z,8.80
2019-03-12T10:57:59.504Z,9.87
2019-03-12T11:00:29.398Z,10.80
2019-03-12T11:02:59.188Z,10.40
2019-03-12T11:05:28.979Z,9.73
2019-03-12T11:07:58.775Z,8.83
2019-03-12T11:10:28.544Z,3.83
2019-03-12T11:12:58.345Z,5.70
2019-03-12T11:15:28.135Z,10.83
2019-03-12T11:17:57.931Z,12.23
2019-03-12T11:20:28.178Z,9.43
2019-03-12T11:22:58.058Z,4.93
2019-03-12T11:25:28.415Z,12.20
2019-03-12T11:27:59.361Z,10.13
2019-03-12T11:30:29.126Z,9.20
2019-03-12T11:32:58.915Z,7.00
2019-03-12T11:35:38.653Z,10.80
2019-03-12T11:38:00.262Z,6.73
2019-03-12T11:40:32.397Z,5.23
2019-03-12T11:43:01.628Z,8.33
2019-03-12T11:45:36.717Z,8.33
2019-03-12T11:48:05.533Z,5.67
2019-03-12T11:50:35.447Z,7.80
2019-03-12T11:53:05.397Z,6.87
2019-03-12T11:55:35.308Z,6.57
2019-03-12T11:58:05.264Z,9.00
2019-03-12T12:00:45.853Z,7.23
2019-03-12T12:03:15.721Z,8.17
2019-03-12T12:05:45.497Z,10.03
2019-03-12T12:08:15.444Z,9.83
2019-03-12T12:10:45.284Z,5.33
2019-03-12T12:13:15.149Z,7.13
2019-03-12T12:15:45.012Z,5.77
2019-03-12T12:18:14.882Z,11.23
2019-03-12T12:20:44.666Z,6.93
2019-03-12T12:23:14.524Z,12.07
2019-03-12T12:25:44.383Z,9.57
2019-03-12T12:28:14.223Z,6.60
2019-03-12T12:30:44.082Z,5.80
2019-03-12T12:33:13.852Z,7.67
2019-03-12T12:35:43.652Z,9.33
2019-03-12T12:38:13.441Z,11.37
2019-03-12T12:40:43.431Z,8.77
2019-03-12T12:43:13.242Z,6.70
2019-03-12T12:45:43.024Z,11.53
2019-03-12T12:48:12.882Z,7.63
2019-03-12T12:50:43.838Z,6.27
2019-03-12T12:53:13.683Z,7.37
2019-03-12T12:55:43.474Z,12.87
2019-03-12T12:58:13.339Z,8.93
2019-03-12T13:00:43.277Z,7.17
2019-03-12T13:03:13.053Z,9.73
2019-03-12T13:05:42.854Z,6.10
2019-03-12T13:08:12.708Z,5.60
2019-03-12T13:10:42.499Z,11.17
2019-03-12T13:13:12.288Z,5.07
2019-03-12T13:15:42.074Z,6.53
2019-03-12T13:18:11.854Z,6.33
2019-03-12T13:20:42.730Z,8.37
2019-03-12T13:23:12.507Z,4.77
2019-03-12T13:25:42.313Z,6.47
2019-03-12T13:28:12.279Z,7.23
2019-03-12T13:30:42.077Z,6.17
2019-03-12T13:33:11.924Z,5.67
2019-03-12T13:35:41.788Z,7.80
2019-03-12T13:38:11.586Z,8.97
2019-03-12T13:40:41.472Z,6.03
2019-03-12T13:43:11.401Z,6.70
2019-03-12T13:45:41.256Z,11.13
2019-03-12T13:48:12.609Z,5.73
2019-03-12T13:50:42.473Z,6.17
2019-03-12T13:53:12.466Z,5.27
2019-03-12T13:55:42.298Z,7.80
2019-03-12T13:58:12.168Z,7.17
2019-03-12T14:00:42.016Z,7.33
2019-03-12T14:03:11.876Z,11.80
2019-03-12T14:05:41.696Z,8.20
2019-03-12T14:08:11.516Z,7.53
2019-03-12T14:10:41.290Z,4.37
2019-03-12T14:13:11.129Z,8.93
2019-03-12T14:15:41.690Z,8.20
2019-03-12T14:18:11.513Z,8.03
2019-03-12T14:20:43.144Z,7.43
2019-03-12T14:23:16.025Z,5.60
2019-03-12T14:25:46.159Z,7.07
2019-03-12T14:28:15.963Z,10.27
2019-03-12T14:30:45.737Z,5.30
2019-03-12T14:33:15.523Z,5.33
2019-03-12T14:35:51.431Z,5.70
2019-03-12T14:38:17.314Z,4.73
2019-03-12T14:40:47.158Z,8.90
2019-03-12T14:43:17.185Z,10.43
2019-03-12T14:45:51.338Z,7.23
2019-03-12T14:48:40.784Z,5.87
2019-03-12T14:51:38.127Z,6.23
2019-03-12T14:54:14.271Z,4.70
2019-03-12T14:56:44.062Z,6.73
2019-03-12T14:59:13.833Z,7.17
2019-03-12T15:01:43.694Z,5.27
2019-03-12T15:04:15.054Z,5.30
2019-03-12T15:06:45.213Z,6.17
2019-03-12T15:09:16.241Z,8.13
2019-03-12T15:11:47.195Z,5.80
2019-03-12T15:14:16.962Z,3.20
2019-03-12T15:16:46.755Z,6.67
2019-03-12T15:19:16.531Z,5.83
2019-03-12T15:21:46.323Z,5.90
2019-03-12T15:24:16.162Z,9.07
2019-03-12T15:26:45.957Z,4.90
2019-03-12T15:29:15.732Z,6.00
2019-03-12T15:31:45.546Z,6.97
2019-03-12T15:34:15.318Z,6.90
2019-03-12T15:36:45.500Z,4.30
2019-03-12T15:39:15.522Z,5.07
2019-03-12T15:41:45.361Z,7.70
2019-03-12T15:44:15.145Z,5.93
2019-03-12T15:46:44.923Z,6.83
2019-03-12T15:49:14.713Z,5.53
2019-03-12T15:51:44.497Z,6.30
2019-03-12T15:54:14.274Z,3.80
2019-03-12T15:56:44.059Z,3.60
2019-03-12T15:59:14.811Z,7.40
2019-03-12T16:01:44.662Z,3.77
2019-03-12T16:04:14.447Z,7.90
2019-03-12T16:06:45.297Z,6.90
2019-03-12T16:09:15.089Z,3.13
2019-03-12T16:11:44.883Z,3.50
2019-03-12T16:14:14.721Z,4.37
2019-03-12T16:16:44.505Z,2.70
2019-03-12T16:19:14.703Z,6.40
2019-03-12T16:21:44.479Z,5.17
2019-03-12T16:24:14.336Z,7.90
2019-03-12T16:26:44.127Z,5.93
2019-03-12T16:29:13.919Z,8.13
2019-03-12T16:31:43.694Z,5.57
2019-03-12T16:34:13.475Z,8.43
2019-03-12T16:36:43.267Z,6.27
2019-03-12T16:39:13.181Z,8.50
2019-03-12T16:41:42.951Z,4.50
2019-03-12T16:44:12.739Z,5.13
2019-03-12T16:46:42.525Z,6.13
2019-03-12T16:49:12.307Z,5.83
2019-03-12T16:51:42.101Z,5.47
2019-03-12T16:54:11.875Z,8.90
2019-03-12T16:56:45.496Z,7.17
2019-03-12T16:59:13.144Z,7.27
2019-03-12T17:01:43.002Z,7.30
2019-03-12T17:04:13.636Z,3.30
2019-03-12T17:06:43.559Z,4.73
2019-03-12T17:09:13.706Z,4.67
2019-03-12T17:11:43.563Z,3.67
2019-03-12T17:14:14.415Z,5.90
2019-03-12T17:16:44.208Z,5.57
2019-03-12T17:19:13.989Z,5.50
2019-03-12T17:21:43.783Z,3.93
2019-03-12T17:24:13.559Z,5.03
2019-03-12T17:26:43.346Z,5.30
2019-03-12T17:29:13.129Z,5.03
2019-03-12T17:31:42.894Z,4.90
2019-03-12T17:34:12.671Z,4.60
2019-03-12T17:36:42.441Z,5.93
2019-03-12T17:39:12.223Z,6.73
2019-03-12T17:41:42.367Z,3.50
2019-03-12T17:44:12.148Z,4.67
2019-03-12T17:46:42.993Z,4.00
2019-03-12T17:49:12.945Z,4.97
2019-03-12T17:51:42.831Z,4.40
2019-03-12T17:54:13.463Z,5.30
2019-03-12T17:56:43.235Z,6.30
2019-03-12T17:59:13.023Z,4.73
2019-03-12T18:01:42.797Z,5.47
2019-03-12T18:04:12.579Z,3.30
2019-03-12T18:06:42.359Z,4.30
2019-03-12T18:09:12.204Z,6.33
2019-03-12T18:11:42.406Z,4.57
2019-03-12T18:14:12.160Z,3.60
2019-03-12T18:16:41.955Z,7.77
2019-03-12T18:19:11.711Z,8.07
2019-03-12T18:21:41.507Z,8.20
2019-03-12T18:24:12.822Z,3.93
2019-03-12T18:26:42.614Z,5.77
2019-03-12T18:29:12.388Z,5.30
2019-03-12T18:31:42.171Z,6.20
2019-03-12T18:34:11.946Z,3.20
2019-03-12T18:36:41.730Z,3.63
2019-03-12T18:39:11.515Z,5.60
2019-03-12T18:41:41.681Z,4.43
2019-03-12T18:44:11.450Z,2.63
2019-03-12T18:46:43.161Z,3.70
2019-03-12T18:49:12.723Z,7.93
2019-03-12T18:51:42.532Z,6.60
2019-03-12T18:54:12.303Z,5.40
2019-03-12T18:56:42.111Z,3.90
2019-03-12T18:59:11.893Z,3.57
2019-03-12T19:01:41.687Z,4.77
2019-03-12T19:04:11.467Z,5.87
2019-03-12T19:06:41.264Z,4.00
2019-03-12T19:09:11.052Z,5.73
2019-03-12T19:11:40.823Z,3.40
2019-03-12T19:14:10.611Z,5.13
2019-03-12T19:16:40.407Z,5.47
2019-03-12T19:19:10.275Z,4.43
2019-03-12T19:21:40.049Z,6.00
2019-03-12T19:24:09.837Z,3.83
2019-03-12T19:26:39.615Z,5.07
2019-03-12T19:29:09.470Z,6.50
2019-03-12T19:31:52.946Z,6.43
2019-03-12T19:34:24.614Z,6.87
2019-03-12T19:36:54.411Z,5.70
2019-03-12T19:39:24.277Z,5.33
2019-03-12T19:41:54.066Z,6.13
2019-03-12T19:44:23.847Z,5.90
2019-03-12T19:46:53.621Z,10.37
2019-03-12T19:49:23.403Z,5.43
2019-03-12T19:51:53.281Z,7.40
2019-03-12T19:54:23.143Z,3.80
2019-03-12T19:56:52.991Z,5.83
2019-03-12T19:59:22.864Z,5.83
2019-03-12T20:01:55.191Z,8.60
2019-03-12T20:04:24.959Z,6.27
2019-03-12T20:06:55.819Z,3.87
2019-03-12T20:09:34.893Z,4.33
2019-03-12T20:12:13.806Z,8.07
2019-03-12T20:15:07.139Z,3.87
2019-03-12T20:17:57.075Z,8.57
2019-03-12T20:20:53.334Z,6.57
2019-03-12T20:23:57.949Z,5.77
2019-03-12T20:26:43.010Z,4.63
2019-03-12T20:29:40.006Z,3.60
2019-03-12T20:32:29.433Z,5.87
2019-03-12T20:35:23.582Z,4.23
2019-03-12T20:37:59.388Z,3.93
2019-03-12T20:40:58.081Z,5.40
2019-03-12T20:43:50.548Z,4.80
2019-03-12T20:46:58.566Z,7.27
2019-03-12T20:49:57.160Z,4.87
2019-03-12T20:52:48.014Z,8.37
2019-03-12T20:55:37.548Z,3.73
2019-03-12T20:58:31.536Z,7.07
2019-03-12T21:01:22.967Z,4.20
2019-03-12T21:04:08.805Z,6.83
2019-03-12T21:07:12.111Z,3.43
2019-03-12T21:10:07.687Z,5.00
2019-03-12T21:12:56.908Z,4.43
2019-03-12T21:16:01.372Z,5.03
2019-03-12T21:19:00.146Z,6.07
2019-03-12T21:22:04.054Z,3.60
2019-03-12T21:24:39.147Z,3.20
2019-03-12T21:27:17.572Z,6.37
2019-03-12T21:29:47.768Z,2.10
2019-03-12T21:32:18.692Z,2.20
2019-03-12T21:34:48.825Z,3.60
2019-03-12T21:37:18.686Z,2.57
2019-03-12T21:39:55.085Z,1.10
2019-03-12T21:42:19.948Z,2.53
2019-03-12T21:44:50.881Z,1.00
2019-03-12T21:47:20.642Z,1.03
2019-03-12T21:49:51.408Z,1.60
2019-03-12T21:52:21.190Z,2.53
2019-03-12T21:54:50.984Z,2.60
2019-03-12T21:57:20.758Z,1.83
2019-03-12T21:59:50.542Z,1.80
2019-03-12T22:02:20.329Z,2.40
2019-03-12T22:04:50.102Z,3.40
2019-03-12T22:07:19.881Z,3.30
2019-03-12T22:09:49.655Z,3.00
2019-03-12T22:12:19.444Z,3.37
2019-03-12T22:14:49.210Z,3.50
2019-03-12T22:17:19.964Z,4.00
2019-03-12T22:19:50.804Z,3.67
2019-03-12T22:22:22.227Z,5.50
2019-03-12T22:24:52.012Z,4.60
2019-03-12T22:27:21.795Z,4.13
2019-03-12T22:29:51.561Z,4.70
2019-03-12T22:32:21.347Z,3.80
2019-03-12T22:34:51.122Z,4.00
2019-03-12T22:37:20.924Z,4.90
2019-03-12T22:39:50.684Z,4.30
2019-03-12T22:42:20.462Z,4.87
2019-03-12T22:44:50.243Z,4.27
2019-03-12T22:47:20.043Z,4.67
2019-03-12T22:49:49.910Z,6.43
2019-03-12T22:52:19.688Z,4.47
2019-03-12T22:54:49.475Z,5.23
2019-03-12T22:57:19.276Z,5.07
2019-03-12T23:00:18.054Z,5.80
2019-03-12T23:03:05.804Z,5.60
2019-03-12T23:05:53.466Z,5.37
2019-03-12T23:08:41.272Z,4.83
2019-03-12T23:11:12.643Z,5.17
2019-03-12T23:13:43.900Z,5.20
2019-03-12T23:16:14.144Z,6.93
2019-03-12T23:18:45.170Z,6.37
2019-03-12T23:21:15.015Z,5.00
2019-03-12T23:23:45.079Z,5.43
2019-03-12T23:26:14.859Z,7.27
2019-03-12T23:28:44.636Z,5.17
2019-03-12T23:31:14.596Z,5.90
2019-03-12T23:33:44.523Z,5.57
2019-03-12T23:36:14.307Z,8.50
2019-03-12T23:38:44.831Z,8.50
2019-03-12T23:41:14.607Z,10.03
2019-03-12T23:43:44.473Z,6.93
2019-03-12T23:46:14.264Z,7.40
2019-03-12T23:48:44.037Z,9.37
2019-03-12T23:51:13.887Z,6.50
2019-03-12T23:53:44.895Z,4.70
2019-03-12T23:56:14.684Z,7.10
2019-03-12T23:58:44.508Z,7.23
